sensor_id;sensor_type;location;lat;lon;timestamp;P1;durP1;ratioP1;P2;durP2;ratioP2
12947;SDS011;6539;49.476;8.484;2022-07-29T00:00:51;7.13;;;3.13;;
12947;SDS011;6539;49.476;8.484;2022-07-29T00:03:17;4.28;;;2.67;;
12947;SDS011;6539;49.476;8.484;2022-07-29T00:05:43;5.90;;;3.13;;
12947;SDS011;6539;49.476;8.484;2022-07-29T00:08:11;4.17;;;2.87;;
12947;SDS011;6539;49.476;8.484;2022-07-29T00:10:37;4.88;;;2.80;;
12947;SDS011;6539;49.476;8.484;2022-07-29T00:13:07;4.60;;;3.17;;
12947;SDS011;6539;49.476;8.484;2022-07-29T00:15:33;5.60;;;3.17;;
12947;SDS011;6539;49.476;8.484;2022-07-29T00:17:59;3.90;;;2.40;;
12947;SDS011;6539;49.476;8.484;2022-07-29T00:20:25;5.03;;;3.10;;
12947;SDS011;6539;49.476;8.484;2022-07-29T00:22:53;5.38;;;2.70;;
12947;SDS011;6539;49.476;8.484;2022-07-29T00:25:18;4.43;;;3.00;;
12947;SDS011;6539;49.476;8.484;2022-07-29T00:27:49;3.97;;;2.88;;
12947;SDS011;6539;49.476;8.484;2022-07-29T00:30:17;4.03;;;3.10;;
12947;SDS011;6539;49.476;8.484;2022-07-29T00:32:43;4.13;;;3.03;;
12947;SDS011;6539;49.476;8.484;2022-07-29T00:35:09;6.00;;;3.40;;
12947;SDS011;6539;49.476;8.484;2022-07-29T00:37:55;4.07;;;2.83;;
12947;SDS011;6539;49.476;8.484;2022-07-29T00:40:23;4.40;;;3.10;;
12947;SDS011;6539;49.476;8.484;2022-07-29T00:42:51;5.18;;;3.10;;
12947;SDS011;6539;49.476;8.484;2022-07-29T00:45:20;5.25;;;3.53;;
12947;SDS011;6539;49.476;8.484;2022-07-29T00:47:47;4.95;;;2.90;;
12947;SDS011;6539;49.476;8.484;2022-07-29T00:50:13;3.13;;;2.87;;
12947;SDS011;6539;49.476;8.484;2022-07-29T00:52:40;4.40;;;3.25;;
12947;SDS011;6539;49.476;8.484;2022-07-29T00:55:11;4.80;;;3.43;;
12947;SDS011;6539;49.476;8.484;2022-07-29T00:57:41;3.47;;;3.17;;
12947;SDS011;6539;49.476;8.484;2022-07-29T01:00:23;4.53;;;3.23;;
12947;SDS011;6539;49.476;8.484;2022-07-29T01:02:51;4.88;;;3.33;;
12947;SDS011;6539;49.476;8.484;2022-07-29T01:05:18;4.53;;;3.05;;
12947;SDS011;6539;49.476;8.484;2022-07-29T01:07:50;4.80;;;3.22;;
12947;SDS011;6539;49.476;8.484;2022-07-29T01:10:21;4.20;;;3.67;;
12947;SDS011;6539;49.476;8.484;2022-07-29T01:12:49;6.70;;;3.35;;
12947;SDS011;6539;49.476;8.484;2022-07-29T01:15:24;5.10;;;3.33;;
12947;SDS011;6539;49.476;8.484;2022-07-29T01:29:56;6.53;;;3.97;;
12947;SDS011;6539;49.476;8.484;2022-07-29T01:32:15;3.97;;;3.57;;
12947;SDS011;6539;49.476;8.484;2022-07-29T01:34:58;4.87;;;3.50;;
12947;SDS011;6539;49.476;8.484;2022-07-29T01:40:47;7.97;;;3.80;;
12947;SDS011;6539;49.476;8.484;2022-07-29T01:43:21;5.37;;;3.67;;
12947;SDS011;6539;49.476;8.484;2022-07-29T01:46:03;3.90;;;3.50;;
12947;SDS011;6539;49.476;8.484;2022-07-29T01:48:49;9.13;;;4.47;;
12947;SDS011;6539;49.476;8.484;2022-07-29T01:51:31;7.77;;;4.10;;
12947;SDS011;6539;49.476;8.484;2022-07-29T01:57:09;8.40;;;4.77;;
12947;SDS011;6539;49.476;8.484;2022-07-29T01:59:46;6.23;;;3.60;;
12947;SDS011;6539;49.476;8.484;2022-07-29T02:02:17;8.43;;;3.97;;
12947;SDS011;6539;49.476;8.484;2022-07-29T02:04:52;8.57;;;3.70;;
12947;SDS011;6539;49.476;8.484;2022-07-29T02:07:21;5.23;;;3.37;;
12947;SDS011;6539;49.476;8.484;2022-07-29T02:09:50;7.60;;;3.57;;
12947;SDS011;6539;49.476;8.484;2022-07-29T02:12:20;6.07;;;3.60;;
12947;SDS011;6539;49.476;8.484;2022-07-29T02:14:50;5.70;;;3.50;;
12947;SDS011;6539;49.476;8.484;2022-07-29T02:17:29;6.37;;;3.37;;
12947;SDS011;6539;49.476;8.484;2022-07-29T02:20:04;7.07;;;3.47;;
12947;SDS011;6539;49.476;8.484;2022-07-29T02:22:33;6.87;;;3.10;;
12947;SDS011;6539;49.476;8.484;2022-07-29T02:25:03;5.90;;;3.50;;
12947;SDS011;6539;49.476;8.484;2022-07-29T02:27:34;4.63;;;3.47;;
12947;SDS011;6539;49.476;8.484;2022-07-29T02:30:03;6.70;;;3.10;;
12947;SDS011;6539;49.476;8.484;2022-07-29T02:32:31;6.97;;;3.47;;
12947;SDS011;6539;49.476;8.484;2022-07-29T02:35:02;7.77;;;3.83;;
12947;SDS011;6539;49.476;8.484;2022-07-29T02:37:30;6.83;;;3.90;;
12947;SDS011;6539;49.476;8.484;2022-07-29T02:39:57;8.30;;;3.43;;
12947;SDS011;6539;49.476;8.484;2022-07-29T02:42:26;8.20;;;3.57;;
12947;SDS011;6539;49.476;8.484;2022-07-29T02:45:02;4.43;;;4.00;;
12947;SDS011;6539;49.476;8.484;2022-07-29T02:47:47;6.13;;;3.63;;
12947;SDS011;6539;49.476;8.484;2022-07-29T02:50:25;8.60;;;4.10;;
12947;SDS011;6539;49.476;8.484;2022-07-29T02:53:08;6.33;;;4.10;;
12947;SDS011;6539;49.476;8.484;2022-07-29T02:55:57;8.70;;;4.40;;
12947;SDS011;6539;49.476;8.484;2022-07-29T02:58:38;7.60;;;4.23;;
12947;SDS011;6539;49.476;8.484;2022-07-29T03:01:29;7.43;;;3.60;;
12947;SDS011;6539;49.476;8.484;2022-07-29T03:03:59;6.80;;;3.67;;
12947;SDS011;6539;49.476;8.484;2022-07-29T03:06:33;6.20;;;4.20;;
12947;SDS011;6539;49.476;8.484;2022-07-29T03:09:09;6.00;;;3.47;;
12947;SDS011;6539;49.476;8.484;2022-07-29T03:11:37;9.03;;;3.63;;
12947;SDS011;6539;49.476;8.484;2022-07-29T03:14:09;4.63;;;3.50;;
12947;SDS011;6539;49.476;8.484;2022-07-29T03:16:35;4.77;;;3.33;;
12947;SDS011;6539;49.476;8.484;2022-07-29T03:19:06;5.87;;;3.90;;
12947;SDS011;6539;49.476;8.484;2022-07-29T03:21:32;5.33;;;3.50;;
12947;SDS011;6539;49.476;8.484;2022-07-29T03:23:59;4.43;;;2.93;;
12947;SDS011;6539;49.476;8.484;2022-07-29T03:26:27;5.63;;;3.27;;
12947;SDS011;6539;49.476;8.484;2022-07-29T03:28:53;5.37;;;3.33;;
12947;SDS011;6539;49.476;8.484;2022-07-29T03:31:22;6.43;;;3.50;;
12947;SDS011;6539;49.476;8.484;2022-07-29T03:33:52;6.03;;;3.70;;
12947;SDS011;6539;49.476;8.484;2022-07-29T03:36:18;5.70;;;3.03;;
12947;SDS011;6539;49.476;8.484;2022-07-29T03:38:46;6.30;;;2.80;;
12947;SDS011;6539;49.476;8.484;2022-07-29T03:41:16;4.53;;;3.23;;
12947;SDS011;6539;49.476;8.484;2022-07-29T03:43:46;5.77;;;3.20;;
12947;SDS011;6539;49.476;8.484;2022-07-29T03:46:14;4.80;;;3.30;;
12947;SDS011;6539;49.476;8.484;2022-07-29T03:48:46;4.50;;;3.17;;
12947;SDS011;6539;49.476;8.484;2022-07-29T03:51:17;5.30;;;3.07;;
12947;SDS011;6539;49.476;8.484;2022-07-29T03:53:43;4.60;;;2.83;;
12947;SDS011;6539;49.476;8.484;2022-07-29T03:56:09;5.23;;;3.00;;
12947;SDS011;6539;49.476;8.484;2022-07-29T03:58:37;4.17;;;3.20;;
12947;SDS011;6539;49.476;8.484;2022-07-29T04:01:06;5.27;;;3.00;;
12947;SDS011;6539;49.476;8.484;2022-07-29T04:03:35;3.50;;;2.90;;
12947;SDS011;6539;49.476;8.484;2022-07-29T04:06:04;5.53;;;3.07;;
12947;SDS011;6539;49.476;8.484;2022-07-29T04:08:32;6.77;;;3.60;;
12947;SDS011;6539;49.476;8.484;2022-07-29T04:11:03;5.00;;;2.87;;
12947;SDS011;6539;49.476;8.484;2022-07-29T04:13:32;6.40;;;2.93;;
12947;SDS011;6539;49.476;8.484;2022-07-29T04:15:58;5.50;;;3.20;;
12947;SDS011;6539;49.476;8.484;2022-07-29T04:18:27;4.47;;;3.00;;
12947;SDS011;6539;49.476;8.484;2022-07-29T04:20:55;6.67;;;2.80;;
12947;SDS011;6539;49.476;8.484;2022-07-29T04:23:24;5.90;;;3.13;;
12947;SDS011;6539;49.476;8.484;2022-07-29T04:25:58;5.77;;;3.10;;
12947;SDS011;6539;49.476;8.484;2022-07-29T04:28:25;4.93;;;3.30;;
12947;SDS011;6539;49.476;8.484;2022-07-29T04:30:51;5.50;;;3.00;;
12947;SDS011;6539;49.476;8.484;2022-07-29T04:33:21;4.83;;;2.60;;
12947;SDS011;6539;49.476;8.484;2022-07-29T04:35:47;3.77;;;3.23;;
12947;SDS011;6539;49.476;8.484;2022-07-29T04:38:15;3.20;;;2.90;;
12947;SDS011;6539;49.476;8.484;2022-07-29T04:40:43;4.87;;;3.30;;
12947;SDS011;6539;49.476;8.484;2022-07-29T04:43:09;3.73;;;3.20;;
12947;SDS011;6539;49.476;8.484;2022-07-29T04:45:35;7.80;;;3.30;;
12947;SDS011;6539;49.476;8.484;2022-07-29T04:48:01;3.90;;;2.93;;
12947;SDS011;6539;49.476;8.484;2022-07-29T04:50:26;4.97;;;3.23;;
12947;SDS011;6539;49.476;8.484;2022-07-29T04:52:52;3.73;;;2.90;;
12947;SDS011;6539;49.476;8.484;2022-07-29T04:55:18;5.37;;;3.20;;
12947;SDS011;6539;49.476;8.484;2022-07-29T04:57:44;5.53;;;3.60;;
12947;SDS011;6539;49.476;8.484;2022-07-29T05:00:12;5.47;;;3.50;;
12947;SDS011;6539;49.476;8.484;2022-07-29T05:02:38;3.40;;;3.00;;
12947;SDS011;6539;49.476;8.484;2022-07-29T05:05:04;5.20;;;3.80;;
12947;SDS011;6539;49.476;8.484;2022-07-29T05:07:30;6.77;;;3.30;;
12947;SDS011;6539;49.476;8.484;2022-07-29T05:09:58;5.47;;;3.20;;
12947;SDS011;6539;49.476;8.484;2022-07-29T05:12:24;3.70;;;3.23;;
12947;SDS011;6539;49.476;8.484;2022-07-29T05:14:51;5.73;;;3.93;;
12947;SDS011;6539;49.476;8.484;2022-07-29T05:17:19;5.80;;;3.30;;
12947;SDS011;6539;49.476;8.484;2022-07-29T05:19:45;5.50;;;3.50;;
12947;SDS011;6539;49.476;8.484;2022-07-29T05:22:15;5.30;;;3.60;;
12947;SDS011;6539;49.476;8.484;2022-07-29T05:24:41;4.67;;;3.23;;
12947;SDS011;6539;49.476;8.484;2022-07-29T05:27:09;8.77;;;3.83;;
12947;SDS011;6539;49.476;8.484;2022-07-29T05:29:38;10.67;;;4.50;;
12947;SDS011;6539;49.476;8.484;2022-07-29T05:32:07;10.17;;;4.13;;
12947;SDS011;6539;49.476;8.484;2022-07-29T05:34:35;7.10;;;4.27;;
12947;SDS011;6539;49.476;8.484;2022-07-29T05:37:03;10.37;;;3.70;;
12947;SDS011;6539;49.476;8.484;2022-07-29T05:39:29;11.60;;;4.33;;
12947;SDS011;6539;49.476;8.484;2022-07-29T05:41:57;10.70;;;4.43;;
12947;SDS011;6539;49.476;8.484;2022-07-29T05:44:23;10.50;;;4.10;;
12947;SDS011;6539;49.476;8.484;2022-07-29T05:46:51;7.50;;;3.73;;
12947;SDS011;6539;49.476;8.484;2022-07-29T05:49:17;6.47;;;3.63;;
12947;SDS011;6539;49.476;8.484;2022-07-29T05:51:42;6.53;;;3.77;;
12947;SDS011;6539;49.476;8.484;2022-07-29T05:54:09;5.77;;;4.07;;
12947;SDS011;6539;49.476;8.484;2022-07-29T05:56:36;11.23;;;4.27;;
12947;SDS011;6539;49.476;8.484;2022-07-29T05:59:02;10.60;;;4.63;;
12947;SDS011;6539;49.476;8.484;2022-07-29T06:01:30;10.70;;;4.47;;
12947;SDS011;6539;49.476;8.484;2022-07-29T06:03:56;11.77;;;4.90;;
12947;SDS011;6539;49.476;8.484;2022-07-29T06:06:22;10.93;;;5.20;;
12947;SDS011;6539;49.476;8.484;2022-07-29T06:08:50;9.93;;;4.60;;
12947;SDS011;6539;49.476;8.484;2022-07-29T06:11:20;8.33;;;4.43;;
12947;SDS011;6539;49.476;8.484;2022-07-29T06:13:46;7.97;;;4.23;;
12947;SDS011;6539;49.476;8.484;2022-07-29T06:16:14;8.03;;;4.60;;
12947;SDS011;6539;49.476;8.484;2022-07-29T06:18:40;10.63;;;3.97;;
12947;SDS011;6539;49.476;8.484;2022-07-29T06:21:08;12.80;;;4.47;;
12947;SDS011;6539;49.476;8.484;2022-07-29T06:23:37;9.83;;;4.10;;
12947;SDS011;6539;49.476;8.484;2022-07-29T06:26:06;13.17;;;4.53;;
12947;SDS011;6539;49.476;8.484;2022-07-29T06:28:33;10.67;;;4.43;;
12947;SDS011;6539;49.476;8.484;2022-07-29T06:31:02;11.37;;;4.07;;
12947;SDS011;6539;49.476;8.484;2022-07-29T06:33:28;11.33;;;4.33;;
12947;SDS011;6539;49.476;8.484;2022-07-29T06:35:54;11.07;;;3.90;;
12947;SDS011;6539;49.476;8.484;2022-07-29T06:38:20;6.13;;;3.70;;
12947;SDS011;6539;49.476;8.484;2022-07-29T06:40:46;6.72;;;3.80;;
12947;SDS011;6539;49.476;8.484;2022-07-29T06:43:32;8.80;;;4.37;;
12947;SDS011;6539;49.476;8.484;2022-07-29T06:46:05;11.93;;;3.90;;
12947;SDS011;6539;49.476;8.484;2022-07-29T06:48:34;5.55;;;3.72;;
12947;SDS011;6539;49.476;8.484;2022-07-29T06:51:01;6.30;;;3.83;;
12947;SDS011;6539;49.476;8.484;2022-07-29T06:53:29;6.22;;;3.70;;
12947;SDS011;6539;49.476;8.484;2022-07-29T06:55:56;7.05;;;3.65;;
12947;SDS011;6539;49.476;8.484;2022-07-29T06:58:24;8.02;;;3.70;;
12947;SDS011;6539;49.476;8.484;2022-07-29T07:00:51;6.80;;;3.33;;
12947;SDS011;6539;49.476;8.484;2022-07-29T07:03:23;7.18;;;4.07;;
12947;SDS011;6539;49.476;8.484;2022-07-29T07:05:49;4.85;;;3.50;;
12947;SDS011;6539;49.476;8.484;2022-07-29T07:08:18;5.90;;;3.53;;
12947;SDS011;6539;49.476;8.484;2022-07-29T07:10:44;6.45;;;3.45;;
12947;SDS011;6539;49.476;8.484;2022-07-29T07:13:12;7.28;;;3.80;;
12947;SDS011;6539;49.476;8.484;2022-07-29T07:15:42;7.93;;;3.90;;
12947;SDS011;6539;49.476;8.484;2022-07-29T07:18:09;5.25;;;3.42;;
12947;SDS011;6539;49.476;8.484;2022-07-29T07:20:37;5.28;;;3.60;;
12947;SDS011;6539;49.476;8.484;2022-07-29T07:23:03;5.30;;;3.28;;
12947;SDS011;6539;49.476;8.484;2022-07-29T07:25:29;6.07;;;4.00;;
12947;SDS011;6539;49.476;8.484;2022-07-29T07:27:57;6.32;;;3.65;;
12947;SDS011;6539;49.476;8.484;2022-07-29T07:30:23;7.32;;;3.60;;
12947;SDS011;6539;49.476;8.484;2022-07-29T07:32:51;7.05;;;3.55;;
12947;SDS011;6539;49.476;8.484;2022-07-29T07:35:18;3.92;;;3.53;;
12947;SDS011;6539;49.476;8.484;2022-07-29T07:37:47;5.68;;;3.47;;
12947;SDS011;6539;49.476;8.484;2022-07-29T07:40:16;5.38;;;4.18;;
12947;SDS011;6539;49.476;8.484;2022-07-29T07:42:44;5.45;;;4.13;;
12947;SDS011;6539;49.476;8.484;2022-07-29T07:45:10;5.88;;;3.70;;
12947;SDS011;6539;49.476;8.484;2022-07-29T07:47:40;8.73;;;3.85;;
12947;SDS011;6539;49.476;8.484;2022-07-29T07:50:07;5.47;;;3.60;;
12947;SDS011;6539;49.476;8.484;2022-07-29T07:52:45;4.75;;;3.72;;
12947;SDS011;6539;49.476;8.484;2022-07-29T07:55:19;6.72;;;3.65;;
12947;SDS011;6539;49.476;8.484;2022-07-29T07:57:48;4.00;;;3.10;;
12947;SDS011;6539;49.476;8.484;2022-07-29T08:00:14;7.82;;;3.72;;
12947;SDS011;6539;49.476;8.484;2022-07-29T08:02:41;9.45;;;3.60;;
12947;SDS011;6539;49.476;8.484;2022-07-29T08:05:08;5.78;;;3.63;;
12947;SDS011;6539;49.476;8.484;2022-07-29T08:07:38;5.78;;;3.63;;
12947;SDS011;6539;49.476;8.484;2022-07-29T08:10:04;7.50;;;4.55;;
12947;SDS011;6539;49.476;8.484;2022-07-29T08:12:33;7.72;;;4.43;;
12947;SDS011;6539;49.476;8.484;2022-07-29T08:14:59;5.53;;;3.72;;
12947;SDS011;6539;49.476;8.484;2022-07-29T08:17:24;9.27;;;3.67;;
12947;SDS011;6539;49.476;8.484;2022-07-29T08:19:51;7.07;;;3.78;;
12947;SDS011;6539;49.476;8.484;2022-07-29T08:22:22;4.90;;;3.80;;
12947;SDS011;6539;49.476;8.484;2022-07-29T08:24:47;4.85;;;3.53;;
12947;SDS011;6539;49.476;8.484;2022-07-29T08:27:21;5.35;;;3.85;;
12947;SDS011;6539;49.476;8.484;2022-07-29T08:29:47;6.38;;;3.85;;
12947;SDS011;6539;49.476;8.484;2022-07-29T08:32:13;6.00;;;4.20;;
12947;SDS011;6539;49.476;8.484;2022-07-29T08:34:46;9.43;;;4.15;;
12947;SDS011;6539;49.476;8.484;2022-07-29T08:37:12;6.22;;;4.07;;
12947;SDS011;6539;49.476;8.484;2022-07-29T08:39:38;6.28;;;3.50;;
12947;SDS011;6539;49.476;8.484;2022-07-29T08:42:06;6.90;;;3.55;;
12947;SDS011;6539;49.476;8.484;2022-07-29T08:44:32;9.57;;;5.00;;
12947;SDS011;6539;49.476;8.484;2022-07-29T08:46:59;8.30;;;3.92;;
12947;SDS011;6539;49.476;8.484;2022-07-29T08:49:25;6.57;;;4.07;;
12947;SDS011;6539;49.476;8.484;2022-07-29T08:51:55;6.28;;;3.97;;
12947;SDS011;6539;49.476;8.484;2022-07-29T08:54:23;5.93;;;4.25;;
12947;SDS011;6539;49.476;8.484;2022-07-29T08:56:50;6.47;;;3.88;;
12947;SDS011;6539;49.476;8.484;2022-07-29T08:59:20;8.48;;;4.85;;
12947;SDS011;6539;49.476;8.484;2022-07-29T09:01:52;5.28;;;4.40;;
12947;SDS011;6539;49.476;8.484;2022-07-29T09:04:21;5.03;;;4.50;;
12947;SDS011;6539;49.476;8.484;2022-07-29T09:06:57;8.40;;;4.65;;
12947;SDS011;6539;49.476;8.484;2022-07-29T09:09:30;9.32;;;4.43;;
12947;SDS011;6539;49.476;8.484;2022-07-29T09:11:59;6.20;;;3.90;;
12947;SDS011;6539;49.476;8.484;2022-07-29T09:14:25;4.32;;;3.95;;
12947;SDS011;6539;49.476;8.484;2022-07-29T09:19:19;6.75;;;4.25;;
12947;SDS011;6539;49.476;8.484;2022-07-29T09:21:51;4.20;;;3.10;;
12947;SDS011;6539;49.476;8.484;2022-07-29T09:30:04;7.85;;;3.80;;
12947;SDS011;6539;49.476;8.484;2022-07-29T09:32:56;6.72;;;3.92;;
12947;SDS011;6539;49.476;8.484;2022-07-29T09:35:26;8.02;;;3.60;;
12947;SDS011;6539;49.476;8.484;2022-07-29T09:37:54;5.22;;;3.78;;
12947;SDS011;6539;49.476;8.484;2022-07-29T09:40:22;6.00;;;4.30;;
12947;SDS011;6539;49.476;8.484;2022-07-29T09:42:53;5.05;;;3.40;;
12947;SDS011;6539;49.476;8.484;2022-07-29T09:45:31;6.28;;;3.53;;
12947;SDS011;6539;49.476;8.484;2022-07-29T09:47:59;7.13;;;4.35;;
12947;SDS011;6539;49.476;8.484;2022-07-29T09:50:39;6.38;;;3.83;;
12947;SDS011;6539;49.476;8.484;2022-07-29T09:53:11;6.82;;;4.10;;
12947;SDS011;6539;49.476;8.484;2022-07-29T09:55:57;7.60;;;3.63;;
12947;SDS011;6539;49.476;8.484;2022-07-29T09:58:23;9.90;;;3.97;;
12947;SDS011;6539;49.476;8.484;2022-07-29T10:00:54;7.10;;;4.60;;
12947;SDS011;6539;49.476;8.484;2022-07-29T10:03:21;7.85;;;3.50;;
12947;SDS011;6539;49.476;8.484;2022-07-29T10:06:09;8.00;;;3.70;;
12947;SDS011;6539;49.476;8.484;2022-07-29T10:08:39;5.25;;;3.53;;
12947;SDS011;6539;49.476;8.484;2022-07-29T10:13:44;8.57;;;3.92;;
12947;SDS011;6539;49.476;8.484;2022-07-29T10:16:12;4.20;;;3.22;;
12947;SDS011;6539;49.476;8.484;2022-07-29T10:18:41;7.63;;;3.60;;
12947;SDS011;6539;49.476;8.484;2022-07-29T10:21:11;3.63;;;3.25;;
12947;SDS011;6539;49.476;8.484;2022-07-29T10:23:40;7.93;;;3.60;;
12947;SDS011;6539;49.476;8.484;2022-07-29T10:26:10;5.78;;;3.63;;
12947;SDS011;6539;49.476;8.484;2022-07-29T10:28:36;5.88;;;3.63;;
12947;SDS011;6539;49.476;8.484;2022-07-29T10:31:04;5.53;;;4.32;;
12947;SDS011;6539;49.476;8.484;2022-07-29T10:33:48;6.30;;;3.35;;
12947;SDS011;6539;49.476;8.484;2022-07-29T10:36:40;6.55;;;3.78;;
12947;SDS011;6539;49.476;8.484;2022-07-29T10:39:20;6.00;;;3.75;;
12947;SDS011;6539;49.476;8.484;2022-07-29T10:44:49;4.22;;;3.83;;
12947;SDS011;6539;49.476;8.484;2022-07-29T10:47:22;6.50;;;5.00;;
12947;SDS011;6539;49.476;8.484;2022-07-29T10:49:56;6.32;;;3.78;;
12947;SDS011;6539;49.476;8.484;2022-07-29T10:52:51;5.20;;;3.50;;
12947;SDS011;6539;49.476;8.484;2022-07-29T10:55:39;6.38;;;3.53;;
12947;SDS011;6539;49.476;8.484;2022-07-29T10:58:11;6.13;;;3.90;;
12947;SDS011;6539;49.476;8.484;2022-07-29T11:00:49;4.88;;;4.18;;
12947;SDS011;6539;49.476;8.484;2022-07-29T11:06:12;8.05;;;3.58;;
12947;SDS011;6539;49.476;8.484;2022-07-29T11:08:39;9.65;;;3.65;;
12947;SDS011;6539;49.476;8.484;2022-07-29T11:13:50;4.93;;;3.97;;
12947;SDS011;6539;49.476;8.484;2022-07-29T11:16:19;6.07;;;3.72;;
12947;SDS011;6539;49.476;8.484;2022-07-29T11:21:39;5.68;;;3.70;;
12947;SDS011;6539;49.476;8.484;2022-07-29T11:24:27;8.18;;;3.60;;
12947;SDS011;6539;49.476;8.484;2022-07-29T11:27:13;5.07;;;3.15;;
12947;SDS011;6539;49.476;8.484;2022-07-29T11:32:19;5.45;;;3.85;;
12947;SDS011;6539;49.476;8.484;2022-07-29T11:35:10;11.25;;;3.97;;
12947;SDS011;6539;49.476;8.484;2022-07-29T11:43:46;6.57;;;3.80;;
12947;SDS011;6539;49.476;8.484;2022-07-29T11:46:12;4.93;;;3.70;;
12947;SDS011;6539;49.476;8.484;2022-07-29T11:48:42;6.13;;;3.72;;
12947;SDS011;6539;49.476;8.484;2022-07-29T11:51:09;6.10;;;4.00;;
12947;SDS011;6539;49.476;8.484;2022-07-29T11:53:38;5.18;;;4.00;;
12947;SDS011;6539;49.476;8.484;2022-07-29T11:56:07;7.28;;;6.57;;
12947;SDS011;6539;49.476;8.484;2022-07-29T11:58:35;7.68;;;6.40;;
12947;SDS011;6539;49.476;8.484;2022-07-29T12:01:06;7.40;;;4.40;;
12947;SDS011;6539;49.476;8.484;2022-07-29T12:03:32;4.40;;;3.75;;
12947;SDS011;6539;49.476;8.484;2022-07-29T12:05:59;7.07;;;4.57;;
12947;SDS011;6539;49.476;8.484;2022-07-29T12:08:25;6.95;;;5.18;;
12947;SDS011;6539;49.476;8.484;2022-07-29T12:10:57;9.02;;;4.03;;
12947;SDS011;6539;49.476;8.484;2022-07-29T12:13:22;5.55;;;4.22;;
12947;SDS011;6539;49.476;8.484;2022-07-29T12:16:04;5.40;;;3.97;;
12947;SDS011;6539;49.476;8.484;2022-07-29T12:18:32;5.57;;;3.13;;
12947;SDS011;6539;49.476;8.484;2022-07-29T12:20:58;6.72;;;4.60;;
12947;SDS011;6539;49.476;8.484;2022-07-29T12:23:28;5.28;;;3.85;;
12947;SDS011;6539;49.476;8.484;2022-07-29T12:25:59;7.07;;;3.47;;
12947;SDS011;6539;49.476;8.484;2022-07-29T12:28:31;4.00;;;3.40;;
12947;SDS011;6539;49.476;8.484;2022-07-29T12:31:12;7.47;;;3.70;;
12947;SDS011;6539;49.476;8.484;2022-07-29T12:33:39;3.65;;;3.33;;
12947;SDS011;6539;49.476;8.484;2022-07-29T12:36:06;7.65;;;3.53;;
12947;SDS011;6539;49.476;8.484;2022-07-29T12:38:36;6.90;;;4.35;;
12947;SDS011;6539;49.476;8.484;2022-07-29T12:41:09;4.60;;;3.67;;
12947;SDS011;6539;49.476;8.484;2022-07-29T12:43:38;4.45;;;3.40;;
12947;SDS011;6539;49.476;8.484;2022-07-29T12:46:17;5.30;;;3.45;;
12947;SDS011;6539;49.476;8.484;2022-07-29T12:48:43;4.07;;;3.65;;
12947;SDS011;6539;49.476;8.484;2022-07-29T12:51:09;4.28;;;3.40;;
12947;SDS011;6539;49.476;8.484;2022-07-29T12:53:41;6.30;;;3.70;;
12947;SDS011;6539;49.476;8.484;2022-07-29T12:56:42;5.82;;;3.30;;
12947;SDS011;6539;49.476;8.484;2022-07-29T13:01:45;4.88;;;3.30;;
12947;SDS011;6539;49.476;8.484;2022-07-29T13:07:03;5.95;;;3.90;;
12947;SDS011;6539;49.476;8.484;2022-07-29T13:09:43;6.65;;;3.63;;
12947;SDS011;6539;49.476;8.484;2022-07-29T13:12:13;9.18;;;3.60;;
12947;SDS011;6539;49.476;8.484;2022-07-29T13:14:40;7.70;;;4.10;;
12947;SDS011;6539;49.476;8.484;2022-07-29T13:17:12;5.15;;;3.63;;
12947;SDS011;6539;49.476;8.484;2022-07-29T13:19:48;5.47;;;3.65;;
12947;SDS011;6539;49.476;8.484;2022-07-29T13:22:37;6.18;;;3.47;;
12947;SDS011;6539;49.476;8.484;2022-07-29T13:25:03;4.00;;;3.38;;
12947;SDS011;6539;49.476;8.484;2022-07-29T13:27:36;5.28;;;3.40;;
12947;SDS011;6539;49.476;8.484;2022-07-29T13:30:07;6.68;;;3.58;;
12947;SDS011;6539;49.476;8.484;2022-07-29T13:32:41;4.72;;;3.33;;
12947;SDS011;6539;49.476;8.484;2022-07-29T13:35:07;4.78;;;3.63;;
12947;SDS011;6539;49.476;8.484;2022-07-29T13:37:36;4.35;;;3.40;;
12947;SDS011;6539;49.476;8.484;2022-07-29T13:40:06;5.97;;;3.65;;
12947;SDS011;6539;49.476;8.484;2022-07-29T13:42:33;4.80;;;3.53;;
12947;SDS011;6539;49.476;8.484;2022-07-29T13:44:59;4.45;;;3.95;;
12947;SDS011;6539;49.476;8.484;2022-07-29T13:47:26;3.67;;;3.38;;
12947;SDS011;6539;49.476;8.484;2022-07-29T13:49:57;4.20;;;3.78;;
12947;SDS011;6539;49.476;8.484;2022-07-29T13:52:24;9.75;;;5.00;;
12947;SDS011;6539;49.476;8.484;2022-07-29T13:54:49;4.97;;;4.18;;
12947;SDS011;6539;49.476;8.484;2022-07-29T13:57:15;8.63;;;4.10;;
12947;SDS011;6539;49.476;8.484;2022-07-29T13:59:41;4.78;;;3.42;;
12947;SDS011;6539;49.476;8.484;2022-07-29T14:02:10;4.07;;;3.53;;
12947;SDS011;6539;49.476;8.484;2022-07-29T14:04:37;3.40;;;3.10;;
12947;SDS011;6539;49.476;8.484;2022-07-29T14:07:03;3.78;;;3.40;;
12947;SDS011;6539;49.476;8.484;2022-07-29T14:09:29;6.50;;;3.47;;
12947;SDS011;6539;49.476;8.484;2022-07-29T14:11:57;18.65;;;3.95;;
12947;SDS011;6539;49.476;8.484;2022-07-29T14:14:23;4.30;;;3.30;;
12947;SDS011;6539;49.476;8.484;2022-07-29T14:16:49;5.45;;;3.30;;
12947;SDS011;6539;49.476;8.484;2022-07-29T14:19:15;4.88;;;3.53;;
12947;SDS011;6539;49.476;8.484;2022-07-29T14:21:43;5.75;;;3.30;;
12947;SDS011;6539;49.476;8.484;2022-07-29T14:24:11;5.68;;;3.10;;
12947;SDS011;6539;49.476;8.484;2022-07-29T14:26:39;5.72;;;3.60;;
12947;SDS011;6539;49.476;8.484;2022-07-29T14:29:05;3.85;;;3.15;;
12947;SDS011;6539;49.476;8.484;2022-07-29T14:31:31;3.75;;;3.17;;
12947;SDS011;6539;49.476;8.484;2022-07-29T14:33:56;5.18;;;3.53;;
12947;SDS011;6539;49.476;8.484;2022-07-29T14:36:24;6.57;;;3.30;;
12947;SDS011;6539;49.476;8.484;2022-07-29T14:38:50;4.15;;;2.92;;
12947;SDS011;6539;49.476;8.484;2022-07-29T14:41:16;4.47;;;2.83;;
12947;SDS011;6539;49.476;8.484;2022-07-29T14:43:44;5.20;;;3.22;;
12947;SDS011;6539;49.476;8.484;2022-07-29T14:46:10;6.22;;;3.15;;
12947;SDS011;6539;49.476;8.484;2022-07-29T14:48:36;4.28;;;3.20;;
12947;SDS011;6539;49.476;8.484;2022-07-29T14:51:02;4.43;;;3.40;;
12947;SDS011;6539;49.476;8.484;2022-07-29T14:53:28;4.88;;;3.00;;
12947;SDS011;6539;49.476;8.484;2022-07-29T14:56:01;4.63;;;3.00;;
12947;SDS011;6539;49.476;8.484;2022-07-29T14:58:27;6.80;;;3.10;;
12947;SDS011;6539;49.476;8.484;2022-07-29T15:00:53;3.55;;;3.22;;
12947;SDS011;6539;49.476;8.484;2022-07-29T15:03:20;3.05;;;2.78;;
12947;SDS011;6539;49.476;8.484;2022-07-29T15:05:48;5.03;;;3.15;;
12947;SDS011;6539;49.476;8.484;2022-07-29T15:08:19;4.40;;;2.97;;
12947;SDS011;6539;49.476;8.484;2022-07-29T15:10:47;3.70;;;2.97;;
12947;SDS011;6539;49.476;8.484;2022-07-29T15:13:16;4.68;;;2.95;;
12947;SDS011;6539;49.476;8.484;2022-07-29T15:15:42;5.97;;;3.13;;
12947;SDS011;6539;49.476;8.484;2022-07-29T15:18:09;5.35;;;3.10;;
12947;SDS011;6539;49.476;8.484;2022-07-29T15:20:37;5.32;;;3.40;;
12947;SDS011;6539;49.476;8.484;2022-07-29T15:23:03;6.00;;;3.20;;
12947;SDS011;6539;49.476;8.484;2022-07-29T15:25:28;4.78;;;2.67;;
12947;SDS011;6539;49.476;8.484;2022-07-29T15:27:55;5.90;;;2.78;;
12947;SDS011;6539;49.476;8.484;2022-07-29T15:30:23;3.58;;;2.90;;
12947;SDS011;6539;49.476;8.484;2022-07-29T15:32:49;5.93;;;2.92;;
12947;SDS011;6539;49.476;8.484;2022-07-29T15:35:15;5.78;;;2.80;;
12947;SDS011;6539;49.476;8.484;2022-07-29T15:37:43;4.90;;;2.70;;
12947;SDS011;6539;49.476;8.484;2022-07-29T15:40:09;3.85;;;2.70;;
12947;SDS011;6539;49.476;8.484;2022-07-29T15:42:35;3.42;;;2.72;;
12947;SDS011;6539;49.476;8.484;2022-07-29T15:45:04;4.30;;;2.75;;
12947;SDS011;6539;49.476;8.484;2022-07-29T15:47:30;4.70;;;2.47;;
12947;SDS011;6539;49.476;8.484;2022-07-29T15:50:00;4.72;;;3.00;;
12947;SDS011;6539;49.476;8.484;2022-07-29T15:52:28;4.47;;;2.40;;
12947;SDS011;6539;49.476;8.484;2022-07-29T15:54:54;4.50;;;2.33;;
12947;SDS011;6539;49.476;8.484;2022-07-29T15:57:23;3.58;;;2.42;;
12947;SDS011;6539;49.476;8.484;2022-07-29T15:59:52;5.07;;;2.35;;
12947;SDS011;6539;49.476;8.484;2022-07-29T16:02:18;5.70;;;2.67;;
12947;SDS011;6539;49.476;8.484;2022-07-29T16:04:48;5.35;;;2.47;;
12947;SDS011;6539;49.476;8.484;2022-07-29T16:07:16;3.40;;;2.40;;
12947;SDS011;6539;49.476;8.484;2022-07-29T16:09:46;3.58;;;2.42;;